sensor_id;sensor_type;location;lat;lon;timestamp;temperature;humidity
871;DHT22;422;51.280;7.236;2023-02-28T00:01:11;-1.50;1.00
871;DHT22;422;51.280;7.236;2023-02-28T00:03:39;-1.50;1.00
871;DHT22;422;51.280;7.236;2023-02-28T00:06:09;-1.40;1.00
871;DHT22;422;51.280;7.236;2023-02-28T00:08:37;-1.40;1.00
871;DHT22;422;51.280;7.236;2023-02-28T00:11:08;-1.40;1.00
871;DHT22;422;51.280;7.236;2023-02-28T00:13:38;-1.40;1.00
871;DHT22;422;51.280;7.236;2023-02-28T00:16:08;-1.40;1.00
871;DHT22;422;51.280;7.236;2023-02-28T00:18:35;-1.40;1.00
871;DHT22;422;51.280;7.236;2023-02-28T00:21:03;-1.30;1.00
871;DHT22;422;51.280;7.236;2023-02-28T00:23:30;-1.30;1.00
871;DHT22;422;51.280;7.236;2023-02-28T00:25:57;-1.20;1.00
871;DHT22;422;51.280;7.236;2023-02-28T00:28:26;-1.20;1.00
871;DHT22;422;51.280;7.236;2023-02-28T00:30:54;-1.10;1.00
871;DHT22;422;51.280;7.236;2023-02-28T00:33:23;-1.10;1.00
871;DHT22;422;51.280;7.236;2023-02-28T00:35:50;-1.10;1.00
871;DHT22;422;51.280;7.236;2023-02-28T00:38:17;-1.10;1.00
871;DHT22;422;51.280;7.236;2023-02-28T00:40:44;-1.10;1.00
871;DHT22;422;51.280;7.236;2023-02-28T00:43:11;-1.10;1.00
871;DHT22;422;51.280;7.236;2023-02-28T00:45:40;-1.10;1.00
871;DHT22;422;51.280;7.236;2023-02-28T00:48:07;-1.10;1.00
871;DHT22;422;51.280;7.236;2023-02-28T00:50:34;-1.20;1.00
871;DHT22;422;51.280;7.236;2023-02-28T00:53:01;-1.30;1.00
871;DHT22;422;51.280;7.236;2023-02-28T00:55:28;-1.30;1.00
871;DHT22;422;51.280;7.236;2023-02-28T00:57:56;-1.40;1.00
871;DHT22;422;51.280;7.236;2023-02-28T01:00:23;-1.40;1.00
871;DHT22;422;51.280;7.236;2023-02-28T01:02:51;-1.40;1.00
871;DHT22;422;51.280;7.236;2023-02-28T01:05:19;-1.40;1.00
871;DHT22;422;51.280;7.236;2023-02-28T01:07:46;-1.60;1.00
871;DHT22;422;51.280;7.236;2023-02-28T01:10:13;-1.50;1.00
871;DHT22;422;51.280;7.236;2023-02-28T01:12:40;-1.60;1.00
871;DHT22;422;51.280;7.236;2023-02-28T01:15:10;-1.60;1.00
871;DHT22;422;51.280;7.236;2023-02-28T01:17:38;-1.70;1.00
871;DHT22;422;51.280;7.236;2023-02-28T01:20:08;-1.80;1.00
871;DHT22;422;51.280;7.236;2023-02-28T01:22:36;-1.80;1.00
871;DHT22;422;51.280;7.236;2023-02-28T01:25:04;-1.90;1.00
871;DHT22;422;51.280;7.236;2023-02-28T01:27:31;-1.90;1.00
871;DHT22;422;51.280;7.236;2023-02-28T01:29:59;-1.90;1.00
871;DHT22;422;51.280;7.236;2023-02-28T01:32:27;-1.80;1.00
871;DHT22;422;51.280;7.236;2023-02-28T01:34:54;-1.80;1.00
871;DHT22;422;51.280;7.236;2023-02-28T01:37:23;-1.80;1.00
871;DHT22;422;51.280;7.236;2023-02-28T01:39:50;-1.80;1.00
871;DHT22;422;51.280;7.236;2023-02-28T01:42:17;-1.80;1.00
871;DHT22;422;51.280;7.236;2023-02-28T01:45:18;-1.80;1.00
871;DHT22;422;51.280;7.236;2023-02-28T01:47:49;-1.80;1.00
871;DHT22;422;51.280;7.236;2023-02-28T01:50:19;-1.80;1.00
871;DHT22;422;51.280;7.236;2023-02-28T01:52:49;-1.90;1.00
871;DHT22;422;51.280;7.236;2023-02-28T01:55:18;-1.90;1.00
871;DHT22;422;51.280;7.236;2023-02-28T01:57:50;-2.00;1.00
871;DHT22;422;51.280;7.236;2023-02-28T02:00:22;-2.10;1.00
871;DHT22;422;51.280;7.236;2023-02-28T02:02:52;-2.10;1.00
871;DHT22;422;51.280;7.236;2023-02-28T02:05:22;-2.00;1.00
871;DHT22;422;51.280;7.236;2023-02-28T02:07:54;-2.10;1.00
871;DHT22;422;51.280;7.236;2023-02-28T02:10:26;-2.20;1.00
871;DHT22;422;51.280;7.236;2023-02-28T02:13:05;-2.10;1.00
871;DHT22;422;51.280;7.236;2023-02-28T02:15:39;-2.10;1.00
871;DHT22;422;51.280;7.236;2023-02-28T02:18:21;-2.10;1.00
871;DHT22;422;51.280;7.236;2023-02-28T02:21:23;-2.20;1.00
871;DHT22;422;51.280;7.236;2023-02-28T02:27:16;-2.30;1.00
871;DHT22;422;51.280;7.236;2023-02-28T02:33:10;-2.30;1.00
871;DHT22;422;51.280;7.236;2023-02-28T02:35:52;-2.30;1.00
871;DHT22;422;51.280;7.236;2023-02-28T02:38:29;-2.30;1.00
871;DHT22;422;51.280;7.236;2023-02-28T02:41:04;-2.20;45.80
871;DHT22;422;51.280;7.236;2023-02-28T02:43:36;-2.20;96.10
871;DHT22;422;51.280;7.236;2023-02-28T02:46:08;-2.20;99.90
871;DHT22;422;51.280;7.236;2023-02-28T02:48:39;-2.30;99.90
871;DHT22;422;51.280;7.236;2023-02-28T02:51:13;-2.40;67.80
871;DHT22;422;51.280;7.236;2023-02-28T02:53:44;-2.30;89.80
871;DHT22;422;51.280;7.236;2023-02-28T02:56:16;-2.30;88.00
871;DHT22;422;51.280;7.236;2023-02-28T02:58:48;-2.40;66.40
871;DHT22;422;51.280;7.236;2023-02-28T03:01:20;-2.40;36.00
871;DHT22;422;51.280;7.236;2023-02-28T03:03:55;-2.40;77.90
871;DHT22;422;51.280;7.236;2023-02-28T03:06:26;-2.40;93.10
871;DHT22;422;51.280;7.236;2023-02-28T03:08:53;-2.40;94.20
871;DHT22;422;51.280;7.236;2023-02-28T03:11:20;-2.50;89.00
871;DHT22;422;51.280;7.236;2023-02-28T03:14:30;-2.40;99.90
871;DHT22;422;51.280;7.236;2023-02-28T03:17:16;-2.50;99.90
871;DHT22;422;51.280;7.236;2023-02-28T03:19:54;-2.50;91.10
871;DHT22;422;51.280;7.236;2023-02-28T03:25:18;-2.50;99.90
871;DHT22;422;51.280;7.236;2023-02-28T03:27:53;-2.50;99.90
871;DHT22;422;51.280;7.236;2023-02-28T03:30:25;-2.50;99.90
871;DHT22;422;51.280;7.236;2023-02-28T03:32:57;-2.50;99.90
871;DHT22;422;51.280;7.236;2023-02-28T03:35:28;-2.50;99.90
871;DHT22;422;51.280;7.236;2023-02-28T03:38:03;-2.50;99.90
871;DHT22;422;51.280;7.236;2023-02-28T03:40:35;-2.50;99.90
871;DHT22;422;51.280;7.236;2023-02-28T03:43:09;-2.60;99.90
871;DHT22;422;51.280;7.236;2023-02-28T03:45:38;-2.60;99.90
871;DHT22;422;51.280;7.236;2023-02-28T03:48:11;-2.60;99.90
871;DHT22;422;51.280;7.236;2023-02-28T03:50:41;-2.50;99.90
871;DHT22;422;51.280;7.236;2023-02-28T03:53:11;-2.60;94.80
871;DHT22;422;51.280;7.236;2023-02-28T03:55:44;-2.60;51.40
871;DHT22;422;51.280;7.236;2023-02-28T03:58:20;-2.60;95.20
871;DHT22;422;51.280;7.236;2023-02-28T04:00:55;-2.60;54.70
871;DHT22;422;51.280;7.236;2023-02-28T04:03:23;-2.70;62.90
871;DHT22;422;51.280;7.236;2023-02-28T04:05:53;-2.80;93.40
871;DHT22;422;51.280;7.236;2023-02-28T04:08:21;-2.70;99.90
871;DHT22;422;51.280;7.236;2023-02-28T04:10:55;-2.70;99.90
871;DHT22;422;51.280;7.236;2023-02-28T04:13:23;-2.70;85.80
871;DHT22;422;51.280;7.236;2023-02-28T04:15:51;-2.70;40.90
871;DHT22;422;51.280;7.236;2023-02-28T04:18:18;-2.70;29.90
871;DHT22;422;51.280;7.236;2023-02-28T04:20:45;-2.60;23.50
871;DHT22;422;51.280;7.236;2023-02-28T04:23:13;-2.70;7.70
871;DHT22;422;51.280;7.236;2023-02-28T04:25:41;-2.60;7.20
871;DHT22;422;51.280;7.236;2023-02-28T04:28:09;-2.70;1.00
871;DHT22;422;51.280;7.236;2023-02-28T04:30:37;-2.70;1.00
871;DHT22;422;51.280;7.236;2023-02-28T04:33:05;-2.70;1.00
871;DHT22;422;51.280;7.236;2023-02-28T04:35:34;-2.70;1.00
871;DHT22;422;51.280;7.236;2023-02-28T04:38:01;-2.70;1.00
871;DHT22;422;51.280;7.236;2023-02-28T04:40:28;-2.80;1.00
871;DHT22;422;51.280;7.236;2023-02-28T04:42:55;-2.80;1.00
871;DHT22;422;51.280;7.236;2023-02-28T04:45:24;-2.80;1.00
871;DHT22;422;51.280;7.236;2023-02-28T04:47:51;-2.80;1.00
871;DHT22;422;51.280;7.236;2023-02-28T04:50:19;-2.90;1.00
871;DHT22;422;51.280;7.236;2023-02-28T04:52:46;-2.90;1.00
871;DHT22;422;51.280;7.236;2023-02-28T04:55:13;-2.90;1.00
871;DHT22;422;51.280;7.236;2023-02-28T04:57:40;-2.80;1.00
871;DHT22;422;51.280;7.236;2023-02-28T05:00:10;-3.00;1.00
871;DHT22;422;51.280;7.236;2023-02-28T05:02:42;-3.00;1.00
871;DHT22;422;51.280;7.236;2023-02-28T05:05:10;-3.00;1.00
871;DHT22;422;51.280;7.236;2023-02-28T05:07:37;-3.00;1.00
871;DHT22;422;51.280;7.236;2023-02-28T05:10:05;-2.90;1.00
871;DHT22;422;51.280;7.236;2023-02-28T05:12:33;-2.80;1.00
871;DHT22;422;51.280;7.236;2023-02-28T05:15:00;-2.90;1.00
871;DHT22;422;51.280;7.236;2023-02-28T05:17:28;-2.90;1.00
871;DHT22;422;51.280;7.236;2023-02-28T05:19:56;-3.00;1.00
871;DHT22;422;51.280;7.236;2023-02-28T05:22:24;-3.00;1.00
871;DHT22;422;51.280;7.236;2023-02-28T05:24:51;-3.00;1.00
871;DHT22;422;51.280;7.236;2023-02-28T05:27:19;-3.00;1.00
871;DHT22;422;51.280;7.236;2023-02-28T05:29:46;-3.10;1.00
871;DHT22;422;51.280;7.236;2023-02-28T05:32:15;-3.00;1.00
871;DHT22;422;51.280;7.236;2023-02-28T05:34:42;-2.90;1.00
871;DHT22;422;51.280;7.236;2023-02-28T05:37:13;-2.80;1.00
871;DHT22;422;51.280;7.236;2023-02-28T05:39:41;-2.70;1.00
871;DHT22;422;51.280;7.236;2023-02-28T05:42:09;-2.70;1.00
871;DHT22;422;51.280;7.236;2023-02-28T05:44:36;-2.60;1.00
871;DHT22;422;51.280;7.236;2023-02-28T05:47:04;-2.60;1.00
871;DHT22;422;51.280;7.236;2023-02-28T05:49:31;-2.60;1.00
871;DHT22;422;51.280;7.236;2023-02-28T05:51:58;-2.70;1.00
871;DHT22;422;51.280;7.236;2023-02-28T05:54:27;-2.70;1.00
871;DHT22;422;51.280;7.236;2023-02-28T05:56:54;-2.80;1.00
871;DHT22;422;51.280;7.236;2023-02-28T05:59:21;-2.80;1.00
871;DHT22;422;51.280;7.236;2023-02-28T06:01:49;-2.70;1.00
871;DHT22;422;51.280;7.236;2023-02-28T06:04:17;-2.80;1.00
871;DHT22;422;51.280;7.236;2023-02-28T06:06:45;-2.80;1.00
871;DHT22;422;51.280;7.236;2023-02-28T06:09:13;-2.80;1.00
871;DHT22;422;51.280;7.236;2023-02-28T06:11:42;-2.80;1.00
871;DHT22;422;51.280;7.236;2023-02-28T06:14:14;-2.80;1.00
871;DHT22;422;51.280;7.236;2023-02-28T06:16:42;-2.90;1.00
871;DHT22;422;51.280;7.236;2023-02-28T06:19:10;-2.90;1.00
871;DHT22;422;51.280;7.236;2023-02-28T06:21:38;-2.90;1.00
871;DHT22;422;51.280;7.236;2023-02-28T06:24:09;-3.00;1.00
871;DHT22;422;51.280;7.236;2023-02-28T06:26:36;-3.00;1.00
871;DHT22;422;51.280;7.236;2023-02-28T06:29:05;-3.00;1.00
871;DHT22;422;51.280;7.236;2023-02-28T06:31:32;-2.90;1.00
871;DHT22;422;51.280;7.236;2023-02-28T06:34:00;-2.80;1.00
871;DHT22;422;51.280;7.236;2023-02-28T06:36:27;-2.90;1.00
871;DHT22;422;51.280;7.236;2023-02-28T06:38:54;-3.00;1.00
871;DHT22;422;51.280;7.236;2023-02-28T06:41:22;-2.90;1.00
871;DHT22;422;51.280;7.236;2023-02-28T06:43:50;-2.90;1.00
871;DHT22;422;51.280;7.236;2023-02-28T06:46:19;-2.90;1.00
871;DHT22;422;51.280;7.236;2023-02-28T06:48:46;-2.90;1.00
871;DHT22;422;51.280;7.236;2023-02-28T06:51:15;-2.80;1.00
871;DHT22;422;51.280;7.236;2023-02-28T06:53:43;-2.80;1.00
871;DHT22;422;51.280;7.236;2023-02-28T06:56:12;-2.70;1.00
871;DHT22;422;51.280;7.236;2023-02-28T06:58:40;-2.70;1.00
871;DHT22;422;51.280;7.236;2023-02-28T07:01:08;-2.70;1.00
871;DHT22;422;51.280;7.236;2023-02-28T07:03:37;-2.70;1.00
871;DHT22;422;51.280;7.236;2023-02-28T07:06:05;-2.60;1.00
871;DHT22;422;51.280;7.236;2023-02-28T07:08:33;-2.60;1.00
871;DHT22;422;51.280;7.236;2023-02-28T07:11:00;-2.70;1.00
871;DHT22;422;51.280;7.236;2023-02-28T07:13:28;-2.60;1.00
871;DHT22;422;51.280;7.236;2023-02-28T07:15:56;-2.60;1.00
871;DHT22;422;51.280;7.236;2023-02-28T07:18:24;-2.60;1.00
871;DHT22;422;51.280;7.236;2023-02-28T07:20:53;-2.50;1.00
871;DHT22;422;51.280;7.236;2023-02-28T07:23:21;-2.40;1.00
871;DHT22;422;51.280;7.236;2023-02-28T07:25:49;-2.40;1.00
871;DHT22;422;51.280;7.236;2023-02-28T07:28:17;-2.30;1.00
871;DHT22;422;51.280;7.236;2023-02-28T07:30:44;-2.20;1.00
871;DHT22;422;51.280;7.236;2023-02-28T07:33:11;-2.00;1.00
871;DHT22;422;51.280;7.236;2023-02-28T07:35:38;-1.80;1.00
871;DHT22;422;51.280;7.236;2023-02-28T07:38:07;-1.50;1.00
871;DHT22;422;51.280;7.236;2023-02-28T07:40:34;-1.30;1.00
871;DHT22;422;51.280;7.236;2023-02-28T07:43:02;-1.10;1.00
871;DHT22;422;51.280;7.236;2023-02-28T07:45:30;-0.70;1.00
871;DHT22;422;51.280;7.236;2023-02-28T07:48:00;-0.50;1.00
871;DHT22;422;51.280;7.236;2023-02-28T07:50:27;-0.30;1.00
871;DHT22;422;51.280;7.236;2023-02-28T07:52:56;0.00;99.90
871;DHT22;422;51.280;7.236;2023-02-28T07:55:25;0.30;99.90
871;DHT22;422;51.280;7.236;2023-02-28T07:57:54;0.60;99.90
871;DHT22;422;51.280;7.236;2023-02-28T08:00:22;0.80;99.90
871;DHT22;422;51.280;7.236;2023-02-28T08:02:49;1.00;99.90
871;DHT22;422;51.280;7.236;2023-02-28T08:05:17;1.20;99.90
871;DHT22;422;51.280;7.236;2023-02-28T08:07:44;1.40;99.90
871;DHT22;422;51.280;7.236;2023-02-28T08:10:13;1.70;99.90
871;DHT22;422;51.280;7.236;2023-02-28T08:12:41;1.80;99.90
871;DHT22;422;51.280;7.236;2023-02-28T08:15:09;2.10;99.90
871;DHT22;422;51.280;7.236;2023-02-28T08:17:36;2.30;99.90
871;DHT22;422;51.280;7.236;2023-02-28T08:20:04;2.30;99.90
871;DHT22;422;51.280;7.236;2023-02-28T08:22:32;2.50;99.90
871;DHT22;422;51.280;7.236;2023-02-28T08:24:59;2.40;99.90
871;DHT22;422;51.280;7.236;2023-02-28T08:27:26;2.40;99.90
871;DHT22;422;51.280;7.236;2023-02-28T08:29:54;2.30;99.90
871;DHT22;422;51.280;7.236;2023-02-28T08:32:22;2.70;99.90
871;DHT22;422;51.280;7.236;2023-02-28T08:34:49;2.70;99.90
871;DHT22;422;51.280;7.236;2023-02-28T08:37:16;3.00;99.90
871;DHT22;422;51.280;7.236;2023-02-28T08:39:43;3.10;99.90
871;DHT22;422;51.280;7.236;2023-02-28T08:42:11;3.20;99.90
871;DHT22;422;51.280;7.236;2023-02-28T08:44:38;3.30;99.90
871;DHT22;422;51.280;7.236;2023-02-28T08:47:07;3.30;99.90
871;DHT22;422;51.280;7.236;2023-02-28T08:49:34;3.50;99.90
871;DHT22;422;51.280;7.236;2023-02-28T08:52:01;3.50;99.90
871;DHT22;422;51.280;7.236;2023-02-28T08:54:29;3.90;99.90
871;DHT22;422;51.280;7.236;2023-02-28T08:56:57;4.20;99.90
871;DHT22;422;51.280;7.236;2023-02-28T08:59:24;4.30;99.90
871;DHT22;422;51.280;7.236;2023-02-28T09:01:51;4.60;99.90
871;DHT22;422;51.280;7.236;2023-02-28T09:04:21;4.80;99.90
871;DHT22;422;51.280;7.236;2023-02-28T09:06:48;4.80;99.90
871;DHT22;422;51.280;7.236;2023-02-28T09:09:15;4.70;99.90
871;DHT22;422;51.280;7.236;2023-02-28T09:11:42;5.10;99.90
871;DHT22;422;51.280;7.236;2023-02-28T09:14:09;5.40;99.90
871;DHT22;422;51.280;7.236;2023-02-28T09:16:37;5.70;99.90
871;DHT22;422;51.280;7.236;2023-02-28T09:19:04;5.80;99.90
871;DHT22;422;51.280;7.236;2023-02-28T09:21:33;6.20;99.90
871;DHT22;422;51.280;7.236;2023-02-28T09:24:00;6.40;99.90
871;DHT22;422;51.280;7.236;2023-02-28T09:26:27;6.00;99.90
871;DHT22;422;51.280;7.236;2023-02-28T09:28:54;6.20;99.90
871;DHT22;422;51.280;7.236;2023-02-28T09:31:24;6.20;99.90
871;DHT22;422;51.280;7.236;2023-02-28T09:33:52;5.70;99.90
871;DHT22;422;51.280;7.236;2023-02-28T09:36:20;5.30;99.90
871;DHT22;422;51.280;7.236;2023-02-28T09:38:49;4.70;99.90
871;DHT22;422;51.280;7.236;2023-02-28T09:41:19;4.40;99.90
871;DHT22;422;51.280;7.236;2023-02-28T09:43:49;4.50;99.90
871;DHT22;422;51.280;7.236;2023-02-28T09:46:29;4.50;99.90
871;DHT22;422;51.280;7.236;2023-02-28T09:49:00;4.70;99.90
871;DHT22;422;51.280;7.236;2023-02-28T09:51:39;5.40;99.90
871;DHT22;422;51.280;7.236;2023-02-28T09:54:14;5.40;99.90
871;DHT22;422;51.280;7.236;2023-02-28T09:56:45;5.30;99.90
871;DHT22;422;51.280;7.236;2023-02-28T09:59:19;4.60;99.90
871;DHT22;422;51.280;7.236;2023-02-28T10:01:56;4.10;99.90
871;DHT22;422;51.280;7.236;2023-02-28T10:04:37;4.00;99.90
871;DHT22;422;51.280;7.236;2023-02-28T10:07:15;3.70;99.90
871;DHT22;422;51.280;7.236;2023-02-28T10:09:50;3.70;99.90
871;DHT22;422;51.280;7.236;2023-02-28T10:12:20;3.80;99.90
871;DHT22;422;51.280;7.236;2023-02-28T10:14:49;3.60;99.90
871;DHT22;422;51.280;7.236;2023-02-28T10:17:20;3.60;99.90
871;DHT22;422;51.280;7.236;2023-02-28T10:19:57;3.60;99.90
871;DHT22;422;51.280;7.236;2023-02-28T10:22:31;3.50;99.90
871;DHT22;422;51.280;7.236;2023-02-28T10:25:11;3.30;99.90
871;DHT22;422;51.280;7.236;2023-02-28T10:27:43;3.30;99.90
871;DHT22;422;51.280;7.236;2023-02-28T10:30:11;3.50;99.90
871;DHT22;422;51.280;7.236;2023-02-28T10:32:40;3.40;99.90
871;DHT22;422;51.280;7.236;2023-02-28T10:35:15;3.40;99.90
871;DHT22;422;51.280;7.236;2023-02-28T10:37:45;3.50;99.90
871;DHT22;422;51.280;7.236;2023-02-28T10:40:29;3.70;99.90
871;DHT22;422;51.280;7.236;2023-02-28T10:42:58;4.00;99.90
871;DHT22;422;51.280;7.236;2023-02-28T10:45:26;5.00;99.90
871;DHT22;422;51.280;7.236;2023-02-28T10:47:57;5.80;99.90
871;DHT22;422;51.280;7.236;2023-02-28T10:50:30;6.30;99.90
871;DHT22;422;51.280;7.236;2023-02-28T10:53:10;6.80;99.90
871;DHT22;422;51.280;7.236;2023-02-28T10:55:42;6.90;99.90
871;DHT22;422;51.280;7.236;2023-02-28T10:58:21;7.30;99.90
871;DHT22;422;51.280;7.236;2023-02-28T11:00:49;7.30;99.90
871;DHT22;422;51.280;7.236;2023-02-28T11:03:28;7.60;99.90
871;DHT22;422;51.280;7.236;2023-02-28T11:05:56;8.00;99.90
871;DHT22;422;51.280;7.236;2023-02-28T11:08:24;8.00;99.90
871;DHT22;422;51.280;7.236;2023-02-28T11:10:57;8.00;99.90
871;DHT22;422;51.280;7.236;2023-02-28T11:13:28;7.80;99.90
871;DHT22;422;51.280;7.236;2023-02-28T11:15:59;7.90;99.90
871;DHT22;422;51.280;7.236;2023-02-28T11:18:30;8.00;99.90
871;DHT22;422;51.280;7.236;2023-02-28T11:20:59;8.00;99.90
871;DHT22;422;51.280;7.236;2023-02-28T11:23:30;8.00;99.90
871;DHT22;422;51.280;7.236;2023-02-28T11:26:02;7.80;99.90
871;DHT22;422;51.280;7.236;2023-02-28T11:28:32;8.00;99.90
871;DHT22;422;51.280;7.236;2023-02-28T11:31:15;8.20;99.90
871;DHT22;422;51.280;7.236;2023-02-28T11:33:46;8.00;99.90
871;DHT22;422;51.280;7.236;2023-02-28T11:36:19;7.70;99.90
871;DHT22;422;51.280;7.236;2023-02-28T11:38:47;8.20;99.90
871;DHT22;422;51.280;7.236;2023-02-28T11:41:37;8.70;99.90
871;DHT22;422;51.280;7.236;2023-02-28T11:44:29;8.70;99.90
871;DHT22;422;51.280;7.236;2023-02-28T11:47:06;9.10;99.90
871;DHT22;422;51.280;7.236;2023-02-28T11:49:42;9.50;99.90
871;DHT22;422;51.280;7.236;2023-02-28T11:52:20;9.20;99.90
871;DHT22;422;51.280;7.236;2023-02-28T11:55:01;8.70;99.90
871;DHT22;422;51.280;7.236;2023-02-28T11:57:39;9.10;99.90
871;DHT22;422;51.280;7.236;2023-02-28T12:00:25;8.50;99.90
871;DHT22;422;51.280;7.236;2023-02-28T12:03:03;7.60;99.90
871;DHT22;422;51.280;7.236;2023-02-28T12:05:41;7.00;99.90
871;DHT22;422;51.280;7.236;2023-02-28T12:08:23;7.00;99.90
871;DHT22;422;51.280;7.236;2023-02-28T12:11:01;6.70;99.90
871;DHT22;422;51.280;7.236;2023-02-28T12:13:45;6.40;99.90
871;DHT22;422;51.280;7.236;2023-02-28T12:19:16;7.90;99.90
871;DHT22;422;51.280;7.236;2023-02-28T12:24:50;9.00;99.90
871;DHT22;422;51.280;7.236;2023-02-28T12:27:24;8.50;99.90
871;DHT22;422;51.280;7.236;2023-02-28T12:29:56;8.90;99.90
871;DHT22;422;51.280;7.236;2023-02-28T12:32:30;9.20;99.90
871;DHT22;422;51.280;7.236;2023-02-28T12:35:02;9.30;99.90
871;DHT22;422;51.280;7.236;2023-02-28T12:37:36;8.80;99.90
871;DHT22;422;51.280;7.236;2023-02-28T12:40:09;9.20;99.90
871;DHT22;422;51.280;7.236;2023-02-28T12:42:40;9.30;99.90
871;DHT22;422;51.280;7.236;2023-02-28T12:45:13;8.80;99.90
871;DHT22;422;51.280;7.236;2023-02-28T12:47:44;8.10;99.90
871;DHT22;422;51.280;7.236;2023-02-28T12:50:13;7.90;99.90
871;DHT22;422;51.280;7.236;2023-02-28T12:52:45;7.60;99.90
871;DHT22;422;51.280;7.236;2023-02-28T12:55:17;8.20;99.90
871;DHT22;422;51.280;7.236;2023-02-28T12:57:53;8.60;99.90
871;DHT22;422;51.280;7.236;2023-02-28T13:00:25;8.30;99.90
871;DHT22;422;51.280;7.236;2023-02-28T13:06:29;8.10;99.90
871;DHT22;422;51.280;7.236;2023-02-28T13:09:04;8.80;99.90
871;DHT22;422;51.280;7.236;2023-02-28T13:11:33;8.60;99.90
871;DHT22;422;51.280;7.236;2023-02-28T13:14:06;8.60;99.90
871;DHT22;422;51.280;7.236;2023-02-28T13:16:58;8.60;99.90
871;DHT22;422;51.280;7.236;2023-02-28T13:19:27;8.80;99.90
871;DHT22;422;51.280;7.236;2023-02-28T13:21:56;8.30;99.90
871;DHT22;422;51.280;7.236;2023-02-28T13:24:42;9.00;99.90
871;DHT22;422;51.280;7.236;2023-02-28T13:27:20;9.00;99.90
871;DHT22;422;51.280;7.236;2023-02-28T13:29:50;8.50;99.90
871;DHT22;422;51.280;7.236;2023-02-28T13:32:34;8.70;99.90
871;DHT22;422;51.280;7.236;2023-02-28T13:38:32;9.40;99.90
871;DHT22;422;51.280;7.236;2023-02-28T13:44:07;8.60;99.90
871;DHT22;422;51.280;7.236;2023-02-28T13:46:36;8.10;99.90
871;DHT22;422;51.280;7.236;2023-02-28T13:49:23;8.60;99.90
871;DHT22;422;51.280;7.236;2023-02-28T13:51:52;8.80;99.90
871;DHT22;422;51.280;7.236;2023-02-28T13:54:28;8.80;99.90
871;DHT22;422;51.280;7.236;2023-02-28T13:57:12;9.10;99.90
871;DHT22;422;51.280;7.236;2023-02-28T13:59:50;9.10;99.90
871;DHT22;422;51.280;7.236;2023-02-28T14:02:57;9.30;99.90
871;DHT22;422;51.280;7.236;2023-02-28T14:05:30;8.80;99.90
871;DHT22;422;51.280;7.236;2023-02-28T14:08:00;8.70;99.90
871;DHT22;422;51.280;7.236;2023-02-28T14:10:34;8.70;99.90
871;DHT22;422;51.280;7.236;2023-02-28T14:13:13;8.60;99.90
871;DHT22;422;51.280;7.236;2023-02-28T14:15:49;8.50;99.90
871;DHT22;422;51.280;7.236;2023-02-28T14:18:24;8.40;99.90
871;DHT22;422;51.280;7.236;2023-02-28T14:20:57;8.50;99.90
871;DHT22;422;51.280;7.236;2023-02-28T14:26:32;8.30;99.90
871;DHT22;422;51.280;7.236;2023-02-28T14:29:24;8.10;99.90
871;DHT22;422;51.280;7.236;2023-02-28T14:31:58;7.90;99.90
871;DHT22;422;51.280;7.236;2023-02-28T14:34:48;7.60;99.90
871;DHT22;422;51.280;7.236;2023-02-28T14:37:23;7.40;99.90
871;DHT22;422;51.280;7.236;2023-02-28T14:39:53;7.50;99.90
871;DHT22;422;51.280;7.236;2023-02-28T14:42:29;7.40;99.90
871;DHT22;422;51.280;7.236;2023-02-28T14:44:57;7.30;99.90
871;DHT22;422;51.280;7.236;2023-02-28T14:47:27;7.40;99.90
871;DHT22;422;51.280;7.236;2023-02-28T14:49:55;7.40;99.90
871;DHT22;422;51.280;7.236;2023-02-28T14:52:25;7.10;99.90
871;DHT22;422;51.280;7.236;2023-02-28T14:54:56;6.80;99.90
871;DHT22;422;51.280;7.236;2023-02-28T14:57:27;6.50;99.90
871;DHT22;422;51.280;7.236;2023-02-28T14:59:59;6.60;99.90
871;DHT22;422;51.280;7.236;2023-02-28T15:02:30;6.50;99.90
871;DHT22;422;51.280;7.236;2023-02-28T15:04:59;6.00;99.90
871;DHT22;422;51.280;7.236;2023-02-28T15:07:28;5.80;99.90
871;DHT22;422;51.280;7.236;2023-02-28T15:10:16;5.70;99.90
871;DHT22;422;51.280;7.236;2023-02-28T15:12:51;5.70;99.90
871;DHT22;422;51.280;7.236;2023-02-28T15:15:20;5.60;99.90
871;DHT22;422;51.280;7.236;2023-02-28T15:17:51;5.60;99.90
871;DHT22;422;51.280;7.236;2023-02-28T15:20:20;5.30;99.90
871;DHT22;422;51.280;7.236;2023-02-28T15:22:50;5.20;99.90
871;DHT22;422;51.280;7.236;2023-02-28T15:25:21;5.10;99.90
871;DHT22;422;51.280;7.236;2023-02-28T15:27:50;5.20;99.90
871;DHT22;422;51.280;7.236;2023-02-28T15:30:21;5.30;99.90
871;DHT22;422;51.280;7.236;2023-02-28T15:33:18;5.30;99.90
871;DHT22;422;51.280;7.236;2023-02-28T15:35:46;5.10;99.90
871;DHT22;422;51.280;7.236;2023-02-28T15:38:18;5.00;99.90
871;DHT22;422;51.280;7.236;2023-02-28T15:40:46;4.90;99.90
871;DHT22;422;51.280;7.236;2023-02-28T15:43:24;4.90;99.90
871;DHT22;422;51.280;7.236;2023-02-28T15:45:52;4.90;99.90
871;DHT22;422;51.280;7.236;2023-02-28T15:48:23;4.90;99.90
871;DHT22;422;51.280;7.236;2023-02-28T15:50:53;4.80;99.90
871;DHT22;422;51.280;7.236;2023-02-28T15:53:24;4.90;99.90
871;DHT22;422;51.280;7.236;2023-02-28T15:55:55;4.80;99.90
871;DHT22;422;51.280;7.236;2023-02-28T15:58:24;4.90;99.90
871;DHT22;422;51.280;7.236;2023-02-28T16:01:06;4.90;99.90
871;DHT22;422;51.280;7.236;2023-02-28T16:03:43;4.90;99.90
871;DHT22;422;51.280;7.236;2023-02-28T16:06:34;5.00;99.90
871;DHT22;422;51.280;7.236;2023-02-28T16:09:04;4.90;99.90
871;DHT22;422;51.280;7.236;2023-02-28T16:11:34;4.70;99.90
871;DHT22;422;51.280;7.236;2023-02-28T16:14:03;4.70;99.90
871;DHT22;422;51.280;7.236;2023-02-28T16:16:31;4.70;99.90
871;DHT22;422;51.280;7.236;2023-02-28T16:18:59;4.70;99.90
871;DHT22;422;51.280;7.236;2023-02-28T16:21:26;4.70;99.90
871;DHT22;422;51.280;7.236;2023-02-28T16:23:53;4.60;99.90
871;DHT22;422;51.280;7.236;2023-02-28T16:26:24;4.50;99.90
871;DHT22;422;51.280;7.236;2023-02-28T16:28:53;4.20;99.90
871;DHT22;422;51.280;7.236;2023-02-28T16:31:21;4.20;99.90
871;DHT22;422;51.280;7.236;2023-02-28T16:33:48;4.10;99.90
871;DHT22;422;51.280;7.236;2023-02-28T16:36:17;3.90;99.90
871;DHT22;422;51.280;7.236;2023-02-28T16:38:45;3.90;99.90
871;DHT22;422;51.280;7.236;2023-02-28T16:41:14;3.90;99.90
871;DHT22;422;51.280;7.236;2023-02-28T16:43:47;3.80;99.90
871;DHT22;422;51.280;7.236;2023-02-28T16:46:15;3.70;99.90
871;DHT22;422;51.280;7.236;2023-02-28T16:48:43;3.60;99.90
871;DHT22;422;51.280;7.236;2023-02-28T16:51:14;3.60;99.90
871;DHT22;422;51.280;7.236;2023-02-28T16:53:42;3.60;99.90
871;DHT22;422;51.280;7.236;2023-02-28T16:56:15;3.50;99.90
871;DHT22;422;51.280;7.236;2023-02-28T16:58:43;3.40;99.90
871;DHT22;422;51.280;7.236;2023-02-28T17:01:12;3.30;99.90
871;DHT22;422;51.280;7.236;2023-02-28T17:03:40;3.30;99.90
871;DHT22;422;51.280;7.236;2023-02-28T17:06:17;3.20;99.90
871;DHT22;422;51.280;7.236;2023-02-28T17:08:44;3.10;99.90
871;DHT22;422;51.280;7.236;2023-02-28T17:11:11;3.10;99.90
871;DHT22;422;51.280;7.236;2023-02-28T17:13:39;3.00;99.90
871;DHT22;422;51.280;7.236;2023-02-28T17:16:12;2.90;99.90
871;DHT22;422;51.280;7.236;2023-02-28T17:18:42;2.90;99.90
871;DHT22;422;51.280;7.236;2023-02-28T17:21:13;2.90;99.90
871;DHT22;422;51.280;7.236;2023-02-28T17:23:40;2.80;99.90
871;DHT22;422;51.280;7.236;2023-02-28T17:26:12;2.80;99.90
871;DHT22;422;51.280;7.236;2023-02-28T17:28:40;2.70;99.90
871;DHT22;422;51.280;7.236;2023-02-28T17:31:08;2.70;99.90
871;DHT22;422;51.280;7.236;2023-02-28T17:33:36;2.60;99.90
871;DHT22;422;51.280;7.236;2023-02-28T17:36:04;2.50;99.90
871;DHT22;422;51.280;7.236;2023-02-28T17:38:31;2.50;99.90
871;DHT22;422;51.280;7.236;2023-02-28T17:40:59;2.50;99.90
871;DHT22;422;51.280;7.236;2023-02-28T17:43:26;2.50;99.90